Time;durP1;ratioP1;P1;durP2;ratioP2;P2;SDS_P1;SDS_P2;PMS_P1;PMS_P2;Temp;Humidity;BMP_temperature;BMP_pressure;BME280_temperature;BME280_humidity;BME280_pressure;Samples;Min_cycle;Max_cycle;Signal;HPM_P1;HPM_P2
2021/05/13 00:00:09;;;;;;;2.27;0.70;;;;;;;13.05;60.03;99753.84;1717054;83;21662;-68
2021/05/13 00:02:40;;;;;;;1.82;0.90;;;;;;;13.01;59.93;99747.43;1717095;83;21086;-68
2021/05/13 00:05:08;;;;;;;2.55;1.00;;;;;;;12.94;60.41;99754.89;1716963;83;21370;-69
2021/05/13 00:07:36;;;;;;;2.17;1.10;;;;;;;12.94;60.78;99756.26;1705884;83;21210;-68
2021/05/13 00:10:08;;;;;;;1.60;1.10;;;;;;;12.95;60.86;99756.56;1684803;85;21274;-68
2021/05/13 00:15:20;;;;;;;2.42;1.15;;;;;;;12.94;61.43;99752.67;1684100;84;21273;-69
2021/05/13 00:17:49;;;;;;;2.67;1.00;;;;;;;12.94;61.47;99750.77;1684226;85;21076;-68
2021/05/13 00:20:21;;;;;;;2.33;1.20;;;;;;;12.95;61.32;99746.94;1684016;83;21119;-69
2021/05/13 00:22:49;;;;;;;3.27;1.20;;;;;;;12.92;61.47;99752.06;1684182;84;21334;-68
2021/05/13 00:25:16;;;;;;;2.08;1.20;;;;;;;12.88;61.56;99743.42;1684180;85;21787;-69
2021/05/13 00:27:44;;;;;;;4.30;1.32;;;;;;;12.85;61.64;99747.17;1684260;85;21052;-68
2021/05/13 00:30:13;;;;;;;1.80;1.12;;;;;;;12.81;61.51;99741.29;1695470;84;21055;-68
2021/05/13 00:32:40;;;;;;;2.58;1.02;;;;;;;12.78;61.58;99743.13;1684236;85;21277;-68
2021/05/13 00:35:10;;;;;;;5.62;1.40;;;;;;;12.78;61.63;99739.53;1684145;83;21875;-68
2021/05/13 00:37:37;;;;;;;1.55;1.25;;;;;;;12.78;61.81;99736.25;1684219;85;21347;-68
2021/05/13 00:40:06;;;;;;;4.10;1.20;;;;;;;12.77;61.68;99735.94;1684361;84;21235;-68
2021/05/13 00:42:34;;;;;;;3.85;1.30;;;;;;;12.78;61.67;99731.28;1682274;85;21301;-69
2021/05/13 00:45:01;;;;;;;3.58;1.20;;;;;;;12.77;61.61;99729.06;1682293;85;21631;-69
2021/05/13 00:47:29;;;;;;;2.30;1.30;;;;;;;12.77;61.51;99720.83;1682351;85;21170;-68
2021/05/13 00:49:57;;;;;;;3.08;1.42;;;;;;;12.77;61.42;99727.70;1682325;85;21362;-68
2021/05/13 00:52:25;;;;;;;2.52;1.40;;;;;;;12.75;61.21;99724.34;1682193;85;21076;-68
2021/05/13 00:54:52;;;;;;;1.52;1.10;;;;;;;12.72;61.38;99726.16;1682258;85;21353;-68
2021/05/13 00:57:19;;;;;;;3.27;1.30;;;;;;;12.70;61.35;99719.52;1682239;85;21115;-67
2021/05/13 00:59:48;;;;;;;2.72;1.35;;;;;;;12.67;61.42;99708.98;1682284;85;21319;-69
2021/05/13 01:02:16;;;;;;;3.75;1.27;;;;;;;12.65;61.44;99711.13;1682287;83;21176;-68
2021/05/13 01:04:43;;;;;;;2.20;1.15;;;;;;;12.61;61.49;99709.90;1682236;84;21068;-68
2021/05/13 01:07:11;;;;;;;3.17;1.22;;;;;;;12.58;61.59;99709.52;1685079;84;21083;-68
2021/05/13 01:09:40;;;;;;;2.37;1.15;;;;;;;12.51;61.69;99706.83;1654666;86;21080;-68
2021/05/13 01:12:16;;;;;;;4.30;1.60;;;;;;;12.48;61.83;99707.82;1654643;86;21111;-68
2021/05/13 01:14:42;;;;;;;2.27;1.47;;;;;;;12.44;61.98;99710.72;1654915;85;21327;-67
2021/05/13 01:19:46;;;;;;;2.62;1.30;;;;;;;12.38;62.19;99711.93;1654649;86;21882;-69
2021/05/13 01:22:15;;;;;;;3.35;1.70;;;;;;;12.31;62.27;99709.75;1698073;84;21326;-68
2021/05/13 01:24:42;;;;;;;3.35;1.40;;;;;;;12.26;62.41;99702.72;1697958;84;21072;-69
2021/05/13 01:27:10;;;;;;;3.15;1.20;;;;;;;12.28;62.53;99697.84;1698102;84;21083;-68
2021/05/13 01:29:46;;;;;;;2.47;1.20;;;;;;;12.30;62.50;99701.20;1698094;84;21075;-69
2021/05/13 01:32:14;;;;;;;1.57;1.20;;;;;;;12.29;62.55;99705.02;1654663;86;21087;-68
2021/05/13 01:34:42;;;;;;;2.83;1.40;;;;;;;12.30;62.53;99707.23;1698019;84;21398;-68
2021/05/13 01:37:10;;;;;;;1.70;1.30;;;;;;;12.27;62.55;99706.30;1697920;84;21060;-69
2021/05/13 01:39:37;;;;;;;3.37;1.70;;;;;;;12.25;62.71;99707.91;1697829;84;21123;-69
2021/05/13 01:42:05;;;;;;;3.05;1.55;;;;;;;12.24;62.87;99701.27;1654618;86;21094;-68
2021/05/13 01:44:33;;;;;;;2.60;1.42;;;;;;;12.21;62.93;99702.55;1654723;86;21107;-68
2021/05/13 01:47:00;;;;;;;4.50;1.70;;;;;;;12.21;62.99;99697.06;1697919;84;21079;-68
2021/05/13 01:49:33;;;;;;;2.47;1.62;;;;;;;12.19;63.08;99695.08;1654738;85;21801;-68
2021/05/13 01:52:00;;;;;;;3.15;1.30;;;;;;;12.18;63.26;99688.44;1654670;85;21098;-68
2021/05/13 01:54:28;;;;;;;1.98;1.50;;;;;;;12.15;63.38;99693.84;1654593;85;21879;-67
2021/05/13 01:57:04;;;;;;;4.83;1.47;;;;;;;12.09;63.45;99698.87;1654667;85;21096;-68
2021/05/13 01:59:31;;;;;;;2.92;1.72;;;;;;;12.03;63.68;99701.98;1654871;85;21091;-68
2021/05/13 02:01:59;;;;;;;3.15;1.52;;;;;;;11.97;63.84;99700.12;1697991;84;21326;-68
2021/05/13 02:04:28;;;;;;;4.40;1.60;;;;;;;11.96;63.93;99703.10;1697817;84;21119;-68
2021/05/13 02:06:56;;;;;;;5.20;1.60;;;;;;;11.99;63.98;99701.28;1656544;85;21083;-68
2021/05/13 02:09:25;;;;;;;3.45;1.70;;;;;;;12.00;64.05;99701.59;1682342;85;21068;-68
2021/05/13 02:11:53;;;;;;;1.90;1.60;;;;;;;12.00;64.08;99701.05;1682355;84;21283;-68
2021/05/13 02:14:22;;;;;;;2.67;1.70;;;;;;;11.98;64.18;99706.46;1714839;83;21071;-68
2021/05/13 02:16:51;;;;;;;2.40;1.77;;;;;;;11.97;64.26;99704.78;1714992;83;21127;-68
2021/05/13 02:19:19;;;;;;;4.83;1.77;;;;;;;11.99;64.24;99698.53;1714929;83;21082;-68
2021/05/13 02:21:47;;;;;;;5.83;1.90;;;;;;;11.98;64.25;99709.20;1714846;83;21257;-68
2021/05/13 02:24:14;;;;;;;3.83;1.65;;;;;;;11.97;64.34;99700.66;1714810;83;21015;-68
2021/05/13 02:26:42;;;;;;;5.08;2.02;;;;;;;11.99;64.38;99704.86;1714839;83;21077;-69
2021/05/13 02:29:09;;;;;;;2.37;1.90;;;;;;;11.98;64.47;99699.59;1714979;83;21038;-70
2021/05/13 02:31:37;;;;;;;3.27;2.20;;;;;;;11.97;64.55;99702.03;1714882;83;21359;-68
2021/05/13 02:34:04;;;;;;;5.65;2.10;;;;;;;11.95;64.66;99705.53;1714885;83;21078;-68
2021/05/13 02:36:32;;;;;;;4.75;1.92;;;;;;;11.88;64.79;99697.36;1714834;83;21074;-68
2021/05/13 02:38:59;;;;;;;2.42;1.75;;;;;;;11.83;64.94;99700.46;1714905;83;21225;-68
2021/05/13 02:41:27;;;;;;;3.20;2.10;;;;;;;11.80;65.07;99694.05;1713385;83;21337;-68
2021/05/13 02:43:55;;;;;;;3.85;1.90;;;;;;;11.79;65.25;99693.73;1710672;84;21279;-68
2021/05/13 02:46:22;;;;;;;4.78;2.10;;;;;;;11.77;65.36;99693.92;1710846;83;21346;-68
2021/05/13 02:48:50;;;;;;;3.65;1.90;;;;;;;11.73;65.49;99688.05;1710604;84;21094;-68
2021/05/13 02:51:17;;;;;;;4.60;2.40;;;;;;;11.72;65.58;99693.22;1710544;84;21443;-70
2021/05/13 02:53:44;;;;;;;5.37;2.37;;;;;;;11.73;65.61;99693.53;1710380;84;21137;-69
2021/05/13 02:56:12;;;;;;;5.10;2.00;;;;;;;11.77;65.56;99691.72;1710462;84;21288;-68
2021/05/13 02:58:39;;;;;;;3.60;1.98;;;;;;;11.79;65.47;99693.73;1710485;84;21129;-68
2021/05/13 03:01:24;;;;;;;3.67;2.10;;;;;;;11.77;65.50;99689.81;1710542;84;21137;-68
2021/05/13 03:03:52;;;;;;;4.20;2.17;;;;;;;11.78;65.59;99701.66;1710571;84;21176;-68
2021/05/13 03:06:23;;;;;;;5.03;2.40;;;;;;;11.78;65.66;99697.55;1710549;83;21098;-69
2021/05/13 03:08:56;;;;;;;4.50;2.40;;;;;;;11.79;65.65;99697.85;1700281;84;21028;-68
2021/05/13 03:11:23;;;;;;;4.33;2.30;;;;;;;11.79;65.74;99704.72;1653041;86;21182;-68
2021/05/13 03:13:54;;;;;;;5.50;2.77;;;;;;;11.81;65.80;99708.08;1698411;84;21080;-69
2021/05/13 03:16:21;;;;;;;5.60;3.00;;;;;;;11.82;65.80;99704.27;1698371;84;21405;-68
2021/05/13 03:18:56;;;;;;;11.20;3.00;;;;;;;11.80;65.92;99707.23;1698284;84;21164;-68
2021/05/13 03:21:36;;;;;;;5.15;3.05;;;;;;;11.79;66.00;99704.72;1653149;85;21356;-69
2021/05/13 03:24:23;;;;;;;6.87;2.58;;;;;;;11.82;66.08;99704.27;1698542;84;21898;-68
2021/05/13 03:29:14;;;;;;;4.80;2.30;;;;;;;11.87;65.97;99704.44;1652993;86;21079;-68
2021/05/13 03:31:44;;;;;;;4.55;2.83;;;;;;;11.88;65.91;99709.70;1698375;84;21138;-68
2021/05/13 03:34:11;;;;;;;2.87;2.25;;;;;;;11.92;65.97;99712.84;1653049;85;21748;-68
2021/05/13 03:36:39;;;;;;;4.45;2.72;;;;;;;11.94;66.04;99704.70;1698427;84;21275;-67
2021/05/13 03:39:08;;;;;;;4.97;3.12;;;;;;;11.97;65.95;99714.39;1652904;86;21079;-68
2021/05/13 03:41:36;;;;;;;7.30;3.52;;;;;;;11.99;65.91;99717.75;1698243;84;21100;-68
2021/05/13 03:44:04;;;;;;;6.65;3.60;;;;;;;12.02;65.86;99714.56;1654577;85;21086;-68
2021/05/13 03:46:32;;;;;;;6.17;3.00;;;;;;;12.05;65.83;99712.73;1698185;84;21306;-68
2021/05/13 03:48:59;;;;;;;4.75;2.90;;;;;;;12.08;65.83;99719.16;1697892;84;21072;-68
2021/05/13 03:51:26;;;;;;;4.83;2.70;;;;;;;12.12;65.84;99716.27;1654543;85;21906;-68
2021/05/13 03:53:54;;;;;;;3.33;2.72;;;;;;;12.19;65.77;99721.70;1697857;84;21723;-68
2021/05/13 03:56:21;;;;;;;4.40;2.90;;;;;;;12.21;65.69;99725.06;1697778;84;21036;-69
2021/05/13 03:58:54;;;;;;;4.67;2.72;;;;;;;12.24;65.58;99724.61;1643774;84;21238;-69
2021/05/13 04:01:31;;;;;;;4.65;2.90;;;;;;;12.24;65.51;99721.33;1654388;85;21142;-70
2021/05/13 04:03:49;;;;;;;3.98;3.00;;;;;;;12.25;65.49;99724.92;1696667;84;21254;-69
2021/05/13 04:06:17;;;;;;;4.75;3.30;;;;;;;12.26;65.54;99726.06;1697939;84;21343;-69
2021/05/13 04:08:51;;;;;;;6.00;3.00;;;;;;;12.29;65.56;99722.03;1677067;85;21079;-69
2021/05/13 04:11:18;;;;;;;4.30;2.98;;;;;;;12.34;65.58;99729.06;1682158;85;21246;-71
2021/05/13 04:13:47;;;;;;;10.53;4.50;;;;;;;12.37;65.49;99730.85;1682087;85;21091;-68
2021/05/13 04:16:23;;;;;;;5.92;3.47;;;;;;;12.37;65.49;99725.36;1682242;84;21077;-68
2021/05/13 04:18:44;;;;;;;6.30;5.28;;;;;;;12.37;65.47;99729.48;1682367;84;21171;-68
2021/05/13 04:21:12;;;;;;;6.65;3.80;;;;;;;12.38;65.48;99729.79;1682182;85;21226;-68
2021/05/13 04:23:40;;;;;;;7.05;3.67;;;;;;;12.45;65.47;99726.14;1682184;84;21064;-68
2021/05/13 04:26:07;;;;;;;4.75;3.20;;;;;;;12.51;65.43;99722.48;1647999;85;21160;-69
2021/05/13 04:28:35;;;;;;;4.42;3.08;;;;;;;12.59;65.22;99724.40;1682027;85;21279;-68
2021/05/13 04:31:02;;;;;;;8.15;3.55;;;;;;;12.66;65.03;99722.95;1682050;85;21063;-69
2021/05/13 04:33:31;;;;;;;5.05;3.77;;;;;;;12.78;64.88;99721.66;1682097;85;21327;-69
2021/05/13 04:36:00;;;;;;;5.75;3.77;;;;;;;12.86;64.57;99714.48;1682179;85;21079;-68
2021/05/13 04:38:27;;;;;;;4.55;3.52;;;;;;;12.88;64.16;99718.69;1683169;83;21303;-68
2021/05/13 04:40:54;;;;;;;9.10;3.90;;;;;;;12.92;64.16;99713.56;1685320;83;21141;-69
2021/05/13 04:43:22;;;;;;;5.22;3.40;;;;;;;12.99;63.99;99714.33;1691527;84;21906;-70
2021/05/13 04:45:50;;;;;;;6.78;3.77;;;;;;;13.08;63.78;99713.52;1692792;84;21062;-69
2021/05/13 04:48:20;;;;;;;7.45;4.50;;;;;;;13.09;63.55;99716.03;1692826;84;21110;-68
2021/05/13 04:50:46;;;;;;;6.75;3.75;;;;;;;13.09;63.55;99711.91;1692991;84;21073;-68
2021/05/13 04:53:14;;;;;;;6.42;3.37;;;;;;;13.09;63.57;99709.16;1692866;84;21047;-68
2021/05/13 04:55:42;;;;;;;6.15;3.72;;;;;;;13.12;63.39;99713.35;1692680;84;21305;-69
2021/05/13 04:58:11;;;;;;;8.33;4.33;;;;;;;13.13;63.35;99711.74;1692566;84;21079;-68
2021/05/13 05:00:39;;;;;;;7.47;4.20;;;;;;;13.17;63.20;99714.37;1692696;84;21059;-70
2021/05/13 05:03:06;;;;;;;6.78;3.75;;;;;;;13.24;63.16;99717.88;1692824;84;21146;-69
2021/05/13 05:05:34;;;;;;;13.28;5.62;;;;;;;13.32;62.98;99711.20;1692821;84;21197;-69
2021/05/13 05:08:02;;;;;;;7.20;4.70;;;;;;;13.41;62.70;99707.06;1688765;84;21079;-69
2021/05/13 05:10:30;;;;;;;8.50;5.10;;;;;;;13.45;62.61;99702.77;1685153;85;21094;-69
2021/05/13 05:12:57;;;;;;;9.55;4.83;;;;;;;13.51;62.52;99700.99;1685144;85;21047;-69
2021/05/13 05:15:25;;;;;;;7.72;4.67;;;;;;;13.53;62.33;99703.81;1685167;85;21078;-68
2021/05/13 05:17:53;;;;;;;10.53;4.58;;;;;;;13.54;62.20;99706.03;1685350;85;21274;-69
2021/05/13 05:20:20;;;;;;;7.28;4.78;;;;;;;13.52;62.24;99711.77;1685212;85;21363;-68
2021/05/13 05:22:48;;;;;;;6.17;3.98;;;;;;;13.54;62.21;99706.03;1685008;85;21322;-68
2021/05/13 05:25:15;;;;;;;7.25;3.37;;;;;;;13.57;62.14;99708.31;1685208;85;21369;-69
2021/05/13 05:27:43;;;;;;;6.65;3.90;;;;;;;13.58;61.76;99712.20;1684988;85;21309;-69
2021/05/13 05:30:11;;;;;;;12.03;4.75;;;;;;;13.59;61.54;99717.17;1685115;85;21122;-68
2021/05/13 05:32:39;;;;;;;8.65;3.60;;;;;;;13.58;61.25;99712.20;1685165;85;21047;-68
2021/05/13 05:35:09;;;;;;;7.58;3.40;;;;;;;13.59;61.11;99700.66;1685267;85;21157;-69
2021/05/13 05:37:39;;;;;;;6.00;3.42;;;;;;;13.67;61.09;99708.62;1685260;85;21114;-68
2021/05/13 05:40:08;;;;;;;8.88;4.40;;;;;;;13.73;60.74;99704.09;1685122;85;21822;-68
2021/05/13 05:42:35;;;;;;;7.80;4.15;;;;;;;13.76;60.56;99702.23;1695790;83;21436;-69
2021/05/13 05:45:04;;;;;;;8.85;4.15;;;;;;;13.77;60.26;99696.49;1714352;83;21832;-69
2021/05/13 05:47:31;;;;;;;5.40;3.50;;;;;;;13.83;59.92;99697.47;1682311;85;21092;-70
2021/05/13 05:49:59;;;;;;;7.87;4.42;;;;;;;13.85;59.42;99698.07;1682239;85;21282;-69
2021/05/13 05:52:26;;;;;;;5.70;3.40;;;;;;;13.85;58.94;99706.33;1714252;83;21313;-68
2021/05/13 05:54:56;;;;;;;6.40;3.52;;;;;;;13.86;58.77;99701.96;1682288;84;21823;-69
2021/05/13 05:57:23;;;;;;;8.33;4.00;;;;;;;13.87;58.36;99705.02;1682184;84;21095;-69
2021/05/13 05:59:51;;;;;;;6.50;3.80;;;;;;;13.89;58.30;99706.16;1714264;83;21079;-69
2021/05/13 06:02:18;;;;;;;8.65;3.92;;;;;;;13.96;58.31;99701.38;1682227;84;21139;-69
2021/05/13 06:04:46;;;;;;;7.70;3.77;;;;;;;14.05;58.10;99697.74;1682447;84;21293;-69
2021/05/13 06:07:14;;;;;;;4.35;2.83;;;;;;;14.12;57.75;99699.84;1677297;85;21331;-69
2021/05/13 06:09:41;;;;;;;5.15;2.37;;;;;;;14.20;56.62;99703.09;1654116;86;21160;-68
2021/05/13 06:12:09;;;;;;;5.12;2.40;;;;;;;14.25;54.74;99702.38;1685275;85;21784;-69
2021/05/13 06:14:36;;;;;;;4.65;2.40;;;;;;;14.23;53.98;99702.61;1684533;85;21319;-69
2021/05/13 06:17:04;;;;;;;3.52;2.40;;;;;;;14.25;53.68;99700.99;1684640;85;21243;-69
2021/05/13 06:19:32;;;;;;;7.47;2.00;;;;;;;14.27;53.43;99694.16;1684316;85;21826;-69
2021/05/13 06:21:59;;;;;;;2.50;1.85;;;;;;;14.32;52.81;99695.39;1681297;85;21306;-69
2021/05/13 06:24:27;;;;;;;3.35;1.70;;;;;;;14.34;52.50;99698.75;1687497;83;21063;-69
2021/05/13 06:26:58;;;;;;;2.30;1.70;;;;;;;14.39;52.00;99701.63;1685617;85;21305;-69
2021/05/13 06:29:28;;;;;;;2.67;1.72;;;;;;;14.43;51.97;99701.48;1685645;85;21106;-69
2021/05/13 06:31:59;;;;;;;3.30;2.00;;;;;;;14.51;51.70;99705.25;1685741;85;21393;-68
2021/05/13 06:34:28;;;;;;;3.98;1.92;;;;;;;14.61;51.25;99702.73;1685711;84;21098;-68
2021/05/13 06:36:56;;;;;;;6.15;2.67;;;;;;;14.72;50.84;99705.17;1654511;85;21056;-69
2021/05/13 06:39:25;;;;;;;4.37;2.47;;;;;;;14.79;50.31;99701.20;1655219;86;21036;-69
2021/05/13 06:41:52;;;;;;;2.75;1.50;;;;;;;14.88;49.97;99701.66;1654724;85;21370;-68
2021/05/13 06:44:20;;;;;;;5.85;1.65;;;;;;;15.00;49.24;99705.81;1697031;84;21137;-69
2021/05/13 06:46:47;;;;;;;2.25;1.70;;;;;;;15.12;48.89;99706.62;1654472;85;21835;-69
2021/05/13 06:49:15;;;;;;;3.42;2.15;;;;;;;15.26;48.24;99705.80;1697858;84;21331;-68
2021/05/13 06:51:42;;;;;;;4.37;1.52;;;;;;;15.40;47.75;99718.22;1654625;85;21180;-70
2021/05/13 06:54:10;;;;;;;3.05;1.27;;;;;;;15.54;47.14;99714.08;1654581;85;21096;-68
2021/05/13 06:56:37;;;;;;;1.82;0.98;;;;;;;15.65;46.56;99711.03;1697818;83;21323;-69
2021/05/13 06:59:05;;;;;;;1.85;1.00;;;;;;;15.73;45.81;99710.08;1654604;86;21124;-69
2021/05/13 07:01:32;;;;;;;4.35;1.20;;;;;;;15.79;45.16;99701.34;1654476;85;21179;-69
2021/05/13 07:04:00;;;;;;;2.85;1.85;;;;;;;15.81;45.23;99698.63;1697539;83;21329;-69
2021/05/13 07:06:27;;;;;;;2.67;1.50;;;;;;;15.89;45.30;99707.05;1699648;83;21151;-69
2021/05/13 07:08:55;;;;;;;2.60;1.10;;;;;;;15.95;44.75;99708.81;1700708;83;21056;-69
2021/05/13 07:11:23;;;;;;;1.82;0.95;;;;;;;15.97;44.64;99706.64;1714584;83;21373;-68
2021/05/13 07:13:50;;;;;;;1.77;1.22;;;;;;;16.02;44.25;99701.75;1714502;83;21098;-69
2021/05/13 07:16:18;;;;;;;3.05;1.20;;;;;;;16.06;44.02;99703.76;1714619;83;21733;-68
2021/05/13 07:18:46;;;;;;;2.47;1.07;;;;;;;16.10;43.91;99706.31;1714645;83;21074;-69
2021/05/13 07:21:13;;;;;;;2.80;1.12;;;;;;;16.13;43.97;99703.59;1697960;83;21364;-69
2021/05/13 07:23:43;;;;;;;3.85;1.00;;;;;;;16.19;43.96;99694.30;1697991;84;21294;-69
2021/05/13 07:26:11;;;;;;;1.70;1.02;;;;;;;16.33;43.86;99696.20;1697482;83;21198;-68
2021/05/13 07:28:40;;;;;;;1.42;1.05;;;;;;;16.45;43.57;99683.95;1654734;85;21342;-69
2021/05/13 07:31:08;;;;;;;2.92;1.20;;;;;;;16.52;43.59;99682.39;1655724;85;21322;-69
2021/05/13 07:33:36;;;;;;;1.98;1.50;;;;;;;16.59;43.43;99683.05;1714687;83;21058;-68
2021/05/13 07:36:04;;;;;;;3.37;1.40;;;;;;;16.70;43.53;99679.37;1714735;83;21431;-69
2021/05/13 07:38:33;;;;;;;3.70;1.25;;;;;;;16.88;43.35;99673.23;1714776;83;21813;-68
2021/05/13 07:41:02;;;;;;;2.80;1.40;;;;;;;16.97;43.11;99673.95;1714742;83;21106;-69
2021/05/13 07:43:30;;;;;;;3.75;1.50;;;;;;;17.03;42.96;99680.37;1716163;83;21465;-69
2021/05/13 07:45:58;;;;;;;5.37;1.70;;;;;;;17.07;42.88;99673.23;1717891;83;21301;-70
2021/05/13 07:48:27;;;;;;;4.67;1.52;;;;;;;17.17;42.81;99675.29;1717891;83;21117;-69
2021/05/13 07:50:55;;;;;;;2.67;1.55;;;;;;;17.27;42.54;99676.80;1717902;83;21438;-68
2021/05/13 07:53:24;;;;;;;2.75;1.35;;;;;;;17.27;42.38;99679.02;1717921;83;21055;-68
2021/05/13 07:55:51;;;;;;;2.17;1.57;;;;;;;17.27;42.42;99676.24;1718189;83;21333;-67
2021/05/13 07:58:19;;;;;;;3.40;1.80;;;;;;;17.27;42.63;99673.47;1720173;83;21070;-69
2021/05/13 08:00:46;;;;;;;3.50;1.65;;;;;;;17.30;42.68;99675.72;1717953;83;21071;-70
2021/05/13 08:03:14;;;;;;;2.45;1.50;;;;;;;17.32;42.26;99681.00;1700729;83;21048;-76
2021/05/13 08:05:42;;;;;;;2.50;1.70;;;;;;;17.26;42.41;99678.72;1697684;83;21047;-71
2021/05/13 08:08:09;;;;;;;3.80;2.00;;;;;;;17.22;42.71;99673.97;1707618;83;21077;-75
2021/05/13 08:10:36;;;;;;;2.62;1.50;;;;;;;17.23;42.67;99682.02;1722195;83;21308;-75
2021/05/13 08:13:04;;;;;;;5.85;1.70;;;;;;;17.21;42.74;99676.45;1697415;83;21353;-78
2021/05/13 08:15:31;;;;;;;4.80;1.82;;;;;;;17.17;42.62;99673.36;1695141;83;21520;-75
2021/05/13 08:18:00;;;;;;;4.33;1.62;;;;;;;17.11;42.78;99677.16;1695657;84;21074;-74
2021/05/13 08:20:28;;;;;;;5.03;1.50;;;;;;;17.09;42.59;99684.88;1702353;83;21285;-71
2021/05/13 08:22:55;;;;;;;5.28;1.60;;;;;;;17.04;42.69;99679.28;1720197;83;21798;-77
2021/05/13 08:25:23;;;;;;;2.72;1.57;;;;;;;17.04;42.85;99687.05;1722253;83;21071;-75
2021/05/13 08:27:50;;;;;;;4.72;1.60;;;;;;;17.05;42.93;99678.19;1721801;83;21158;-71
2021/05/13 08:30:19;;;;;;;3.95;1.65;;;;;;;17.10;42.84;99678.25;1720130;83;21069;-73
2021/05/13 08:32:46;;;;;;;4.87;1.45;;;;;;;17.16;42.73;99682.76;1722035;83;21684;-73
2021/05/13 08:35:14;;;;;;;3.55;1.40;;;;;;;17.18;42.17;99686.11;1722305;83;21078;-73
2021/05/13 08:37:42;;;;;;;14.65;1.52;;;;;;;17.21;41.24;99674.52;1708039;83;21056;-74
2021/05/13 08:40:11;;;;;;;6.87;1.20;;;;;;;17.29;40.51;99684.29;1694787;84;21758;-72
2021/05/13 08:42:39;;;;;;;2.58;1.12;;;;;;;17.37;39.80;99687.44;1692345;84;21800;-73
2021/05/13 08:45:07;;;;;;;1.57;1.00;;;;;;;17.43;39.57;99679.47;1700253;84;21131;-75
2021/05/13 08:47:39;;;;;;;3.37;0.93;;;;;;;17.49;39.59;99679.52;1701908;84;21429;-75
2021/05/13 08:50:08;;;;;;;4.87;1.30;;;;;;;17.49;39.65;99682.30;1697004;83;21749;-68
2021/05/13 08:52:35;;;;;;;2.47;1.30;;;;;;;17.48;39.62;99670.93;1696886;84;21766;-69
2021/05/13 08:55:05;;;;;;;2.80;1.50;;;;;;;17.53;39.14;99674.59;1704132;83;21071;-77
2021/05/13 08:57:32;;;;;;;4.83;1.70;;;;;;;17.54;39.29;99676.81;1694493;84;21343;-71
2021/05/13 08:59:59;;;;;;;6.53;1.55;;;;;;;17.54;39.56;99676.27;1694170;84;21353;-72
2021/05/13 09:02:30;;;;;;;2.95;1.60;;;;;;;17.58;39.66;99676.61;1656438;86;21104;-69
2021/05/13 09:04:59;;;;;;;5.03;1.70;;;;;;;17.59;39.55;99680.50;1667842;84;21271;-71
2021/05/13 09:07:31;;;;;;;3.98;1.70;;;;;;;17.67;39.63;99672.30;1652976;85;21349;-69
2021/05/13 09:10:09;;;;;;;4.05;1.60;;;;;;;17.77;39.60;99672.95;1656230;85;21086;-68
2021/05/13 09:12:50;;;;;;;4.45;1.57;;;;;;;17.88;39.47;99672.78;1666396;85;21788;-69
2021/05/13 09:15:21;;;;;;;2.40;1.40;;;;;;;17.99;39.28;99674.54;1684000;83;21084;-71
2021/05/13 09:17:51;;;;;;;7.17;1.47;;;;;;;18.10;38.36;99660.76;1674169;85;21120;-72
2021/05/13 09:20:33;;;;;;;2.65;1.47;;;;;;;18.19;38.44;99665.55;1674175;85;21276;-70
2021/05/13 09:23:16;;;;;;;1.77;1.60;;;;;;;18.31;38.31;99672.32;1674032;85;21065;-68
2021/05/13 09:25:45;;;;;;;1.40;1.30;;;;;;;18.39;37.95;99671.83;1674087;84;21413;-74
2021/05/13 09:28:13;;;;;;;3.77;1.42;;;;;;;18.47;37.10;99665.78;1673738;84;21212;-70
2021/05/13 09:30:40;;;;;;;2.35;1.40;;;;;;;18.45;37.18;99669.38;1673994;84;21065;-68
2021/05/13 09:33:09;;;;;;;2.58;1.60;;;;;;;18.51;36.76;99672.46;1674080;85;21313;-64
2021/05/13 09:35:37;;;;;;;6.33;1.75;;;;;;;18.52;36.59;99666.36;1674298;84;21310;-66
2021/05/13 09:38:08;;;;;;;2.25;1.60;;;;;;;18.55;36.93;99667.21;1674053;85;21073;-67
2021/05/13 09:40:52;;;;;;;3.98;1.70;;;;;;;18.63;37.07;99657.86;1673874;85;21474;-66
2021/05/13 09:43:22;;;;;;;6.42;2.27;;;;;;;18.73;37.05;99657.63;1673621;83;21036;-66
2021/05/13 09:45:53;;;;;;;2.62;1.95;;;;;;;18.81;36.84;99657.95;1659029;85;21169;-66
2021/05/13 09:48:41;;;;;;;13.90;2.12;;;;;;;18.88;36.80;99655.80;1682622;84;21054;-68
2021/05/13 09:51:29;;;;;;;3.05;1.60;;;;;;;18.94;36.58;99676.09;1681917;85;21446;-66
2021/05/13 09:54:15;;;;;;;4.20;1.82;;;;;;;18.91;36.51;99663.59;1682636;84;21292;-67
2021/05/13 09:56:51;;;;;;;5.00;1.82;;;;;;;18.84;36.75;99657.42;1629856;86;21059;-65
2021/05/13 09:59:27;;;;;;;7.78;1.87;;;;;;;18.82;37.08;99656.02;1629754;88;21092;-67
2021/05/13 10:02:03;;;;;;;8.33;1.90;;;;;;;18.89;37.10;99655.25;1632980;85;21369;-66
2021/05/13 10:04:31;;;;;;;6.45;1.77;;;;;;;18.95;36.73;99656.94;1653817;85;21084;-66
2021/05/13 10:06:58;;;;;;;2.95;1.55;;;;;;;18.95;36.31;99666.66;1662768;84;21815;-67
2021/05/13 10:09:27;;;;;;;2.92;1.32;;;;;;;18.96;35.95;99658.61;1628218;86;21194;-61
2021/05/13 10:11:56;;;;;;;5.95;1.85;;;;;;;18.99;35.79;99657.52;1637709;87;21210;-65
2021/05/13 10:14:26;;;;;;;2.98;1.40;;;;;;;19.03;35.91;99655.03;1624455;86;21237;-65
2021/05/13 10:17:00;;;;;;;3.30;1.60;;;;;;;19.08;35.73;99643.94;1765463;78;21264;-67
2021/05/13 10:19:47;;;;;;;2.77;1.60;;;;;;;19.15;35.66;99652.86;1770264;80;21046;-69
2021/05/13 10:22:15;;;;;;;3.30;1.37;;;;;;;19.27;35.34;99656.23;1767071;80;21299;-68
2021/05/13 10:24:43;;;;;;;2.80;1.50;;;;;;;19.34;35.09;99651.80;1776566;80;21321;-68
2021/05/13 10:27:21;;;;;;;4.90;1.75;;;;;;;19.31;35.00;99651.80;1762993;80;21083;-69
2021/05/13 10:29:59;;;;;;;5.08;1.90;;;;;;;19.36;35.06;99650.14;1771187;80;21095;-67
2021/05/13 10:32:33;;;;;;;4.00;1.40;;;;;;;19.46;35.13;99648.22;1766292;80;21285;-69
2021/05/13 10:35:08;;;;;;;3.37;2.02;;;;;;;19.49;35.04;99652.39;1791291;80;21911;-65
2021/05/13 10:37:38;;;;;;;3.62;1.60;;;;;;;19.44;35.25;99645.44;1787042;80;21260;-66
2021/05/13 10:40:21;;;;;;;7.83;1.52;;;;;;;19.41;35.48;99636.27;1779196;78;21189;-66
2021/05/13 10:42:44;;;;;;;2.55;1.55;;;;;;;19.47;35.62;99631.00;1762223;80;21279;-66
2021/05/13 10:45:30;;;;;;;2.05;1.62;;;;;;;19.52;35.44;99633.81;1772016;80;21015;-66
2021/05/13 10:48:20;;;;;;;9.03;1.87;;;;;;;19.55;35.30;99624.41;1784819;80;21051;-66
2021/05/13 10:50:58;;;;;;;4.62;2.00;;;;;;;19.61;35.27;99619.13;1775774;80;21463;-65
2021/05/13 10:53:39;;;;;;;3.35;1.62;;;;;;;19.67;35.31;99620.53;1775164;80;21063;-66
2021/05/13 10:56:30;;;;;;;2.50;1.70;;;;;;;19.80;35.09;99620.81;1789454;80;21262;-65
2021/05/13 10:59:11;;;;;;;3.98;1.60;;;;;;;19.88;34.69;99620.26;1791690;80;21039;-65
2021/05/13 11:01:51;;;;;;;3.85;1.80;;;;;;;19.86;34.81;99621.65;1782023;80;21412;-65
2021/05/13 11:04:25;;;;;;;3.05;1.70;;;;;;;19.90;34.83;99624.98;1760423;81;21209;-65
2021/05/13 11:06:59;;;;;;;3.75;1.60;;;;;;;19.95;34.52;99620.81;1750192;81;21326;-64
2021/05/13 11:09:50;;;;;;;3.25;1.60;;;;;;;19.98;34.12;99614.42;1733106;81;21162;-64
2021/05/13 11:12:21;;;;;;;2.70;1.67;;;;;;;19.97;34.18;99609.97;1741264;81;21300;-65
2021/05/13 11:20:31;;;;;;;5.60;1.67;;;;;;;20.05;33.32;99619.14;1775665;80;21073;-73
2021/05/13 11:23:07;;;;;;;2.45;1.57;;;;;;;20.04;33.21;99621.09;1760627;81;21053;-64
2021/05/13 11:25:51;;;;;;;4.30;2.12;;;;;;;20.06;32.91;99619.42;1724577;82;21065;-63
2021/05/13 11:28:32;;;;;;;3.47;1.80;;;;;;;20.09;32.51;99617.47;1722577;83;21072;-66
2021/05/13 11:31:14;;;;;;;5.67;1.30;;;;;;;20.15;32.24;99617.74;1703615;84;21073;-64
2021/05/13 11:33:54;;;;;;;4.55;1.82;;;;;;;20.07;32.15;99622.48;1726006;82;21976;-64
2021/05/13 11:36:30;;;;;;;3.83;1.80;;;;;;;19.98;32.40;99617.20;1740669;82;21325;-61
2021/05/13 11:39:00;;;;;;;4.78;1.57;;;;;;;19.86;32.87;99619.70;1683451;84;21067;-63
2021/05/13 11:41:27;;;;;;;3.50;1.77;;;;;;;19.85;32.96;99616.64;1722499;83;21181;-66
2021/05/13 11:43:55;;;;;;;3.20;1.72;;;;;;;19.86;33.04;99620.26;1734287;82;21308;-65
2021/05/13 11:46:24;;;;;;;4.87;1.65;;;;;;;19.86;33.35;99614.14;1714064;82;21078;-64
2021/05/13 11:48:52;;;;;;;3.30;1.87;;;;;;;19.90;33.37;99618.59;1711157;82;21798;-66
2021/05/13 11:51:29;;;;;;;4.15;1.70;;;;;;;19.92;33.56;99617.75;1738627;82;21752;-66
2021/05/13 11:53:58;;;;;;;5.60;1.75;;;;;;;19.97;33.21;99625.27;1740365;82;21109;-65
2021/05/13 11:56:26;;;;;;;4.58;1.80;;;;;;;19.96;33.45;99628.59;1739173;82;21767;-64
2021/05/13 11:58:58;;;;;;;3.22;1.85;;;;;;;20.00;33.69;99617.20;1738059;82;21488;-66